Main page
METAR-TAF:

METAR-TAF

Airports :

Parsabad, Iran

Parsabad-Moghan Airport

latitude: 39-36-13N, longitude: 47-52-53E, elevation: 77 m

Current weather observation

The report was made 1 hour and 40 minutes ago, at 02:00 UTC
Wind 4 kt from the West/Southwest
Temperature 9°C
Humidity 93%
Pressure 1017 hPa
Visibility 10 km or more
Few clouds at a height of 4000 ft
Scattered clouds at a height of 9000 ft

METAR: OITP 290200Z 25004KT 9999 FEW040 SCT090 09/08 Q1017

Time: 08:10 (03:40 UTC)


TAF: missing

Weather observations and forecasts of more than 4000 airports (METAR and TAF reports).

The available stations are represented by yellow and red dots on the map.

Hover mouse over dot to see the name of the station.

Then click to see weather observations and forecasts.

To change the map : click on the green buttons with a black cross to zoom in, on the green button with a dash to zoom out, or on the green arrows for adjacent maps.


METAR-TAF: